createdAt,value
2023-03-06T00:00:19.397Z,1006.430701
2023-03-06T00:05:19.617Z,1006.363139
2023-03-06T00:10:19.456Z,1006.308550
2023-03-06T00:15:19.552Z,1006.243695
2023-03-06T00:20:19.479Z,1006.181360
2023-03-06T00:25:19.118Z,1006.179563
2023-03-06T00:30:19.167Z,1006.162633
2023-03-06T00:35:19.192Z,1006.132554
2023-03-06T00:40:19.156Z,1006.070947
2023-03-06T00:45:19.125Z,1005.986987
2023-03-06T00:50:19.123Z,1005.943183
2023-03-06T00:55:19.167Z,1005.870241
2023-03-06T01:00:19.358Z,1005.820343
2023-03-06T01:05:19.167Z,1005.762873
2023-03-06T01:10:19.170Z,1005.710446
2023-03-06T01:15:19.092Z,1005.677841
2023-03-06T01:20:19.415Z,1005.600372
2023-03-06T01:25:19.509Z,1005.544349
2023-03-06T01:30:19.243Z,1005.518595
2023-03-06T01:35:19.274Z,1005.453738
2023-03-06T01:40:19.073Z,1005.361495
2023-03-06T01:45:19.741Z,1005.298063
2023-03-06T01:50:19.126Z,1005.346519
2023-03-06T01:55:19.111Z,1005.307059
2023-03-06T02:00:19.201Z,1005.268676
2023-03-06T02:05:19.378Z,1005.216606
2023-03-06T02:10:19.147Z,1005.144365
2023-03-06T02:15:19.092Z,1005.140679
2023-03-06T02:20:19.116Z,1005.124204
2023-03-06T02:25:19.224Z,1005.091599
2023-03-06T02:30:19.184Z,1005.031581
2023-03-06T02:35:19.108Z,1004.990840
2023-03-06T02:40:19.236Z,1004.978217
2023-03-06T02:45:19.101Z,1004.887228
2023-03-06T02:50:19.113Z,1004.852093
2023-03-06T02:55:19.054Z,1004.798222
2023-03-06T03:00:19.242Z,1004.753721
2023-03-06T03:05:19.253Z,1004.695886
2023-03-06T03:10:19.307Z,1004.671205
2023-03-06T03:15:19.038Z,1004.613371
2023-03-06T03:20:19.020Z,1004.551572
2023-03-06T03:25:19.265Z,1004.495900
2023-03-06T03:30:19.034Z,1004.390322
2023-03-06T03:35:19.307Z,1004.360414
2023-03-06T03:40:19.682Z,1004.293752
2023-03-06T03:45:19.457Z,1004.302400
2023-03-06T03:50:19.072Z,1004.258259
2023-03-06T03:55:19.027Z,1004.199163
2023-03-06T04:00:19.069Z,1004.156103
2023-03-06T04:05:19.112Z,1004.150338
2023-03-06T04:10:19.055Z,1004.115567
2023-03-06T04:15:19.283Z,1004.082777
2023-03-06T04:20:19.092Z,1004.035755
2023-03-06T04:25:19.215Z,1004.013958
2023-03-06T04:30:19.108Z,1003.985678
2023-03-06T04:35:19.545Z,1003.990915
2023-03-06T04:40:19.058Z,1003.979218
2023-03-06T04:45:19.379Z,1003.967347
2023-03-06T04:50:19.120Z,1003.924647
2023-03-06T04:55:19.164Z,1003.877804
2023-03-06T05:00:19.106Z,1003.828992
2023-03-06T05:05:19.036Z,1003.772596
2023-03-06T05:10:19.075Z,1003.701097
2023-03-06T05:15:19.117Z,1003.635166
2023-03-06T05:20:19.197Z,1003.601122
2023-03-06T05:25:19.740Z,1003.551215
2023-03-06T05:30:19.248Z,1003.516970
2023-03-06T05:35:19.285Z,1003.475337
2023-03-06T05:40:19.057Z,1003.441997
2023-03-06T05:45:19.075Z,1003.420908
2023-03-06T05:50:19.539Z,1003.407568
2023-03-06T05:55:19.057Z,1003.411531
2023-03-06T06:00:19.201Z,1003.367746
2023-03-06T06:05:19.084Z,1003.372784
2023-03-06T06:10:19.077Z,1003.377655
2023-03-06T06:15:19.044Z,1003.416212
2023-03-06T06:20:19.650Z,1003.362505
2023-03-06T06:25:19.029Z,1003.341956
2023-03-06T06:30:18.980Z,1003.307094
2023-03-06T06:35:19.202Z,1003.276551
2023-03-06T06:40:19.242Z,1003.256552
2023-03-06T06:45:19.002Z,1003.263752
2023-03-06T06:50:18.977Z,1003.337799
2023-03-06T06:55:19.025Z,1003.331115
2023-03-06T07:00:19.148Z,1003.296341
2023-03-06T07:05:20.857Z,1003.290391
2023-03-06T07:10:20.747Z,1003.279040
2023-03-06T07:15:19.052Z,1003.285708
2023-03-06T07:20:19.032Z,1003.270038
2023-03-06T07:25:18.981Z,1003.289143
2023-03-06T07:30:19.156Z,1003.301939
2023-03-06T07:35:20.647Z,1003.301046
2023-03-06T07:40:19.371Z,1003.307365
2023-03-06T07:45:19.013Z,1003.291159
2023-03-06T07:50:19.045Z,1003.348820
2023-03-06T07:55:19.588Z,1003.373881
2023-03-06T08:00:19.241Z,1003.406138
2023-03-06T08:05:19.065Z,1003.436411
2023-03-06T08:10:19.105Z,1003.430113
2023-03-06T08:15:19.146Z,1003.426340
2023-03-06T08:20:18.916Z,1003.396797
2023-03-06T08:25:19.034Z,1003.415452
2023-03-06T08:30:19.059Z,1003.419743
2023-03-06T08:35:19.181Z,1003.401634
2023-03-06T08:40:19.059Z,1003.354886
2023-03-06T08:45:19.011Z,1003.330126
2023-03-06T08:50:16.542Z,1003.347668
2023-03-06T08:55:16.597Z,1003.348097
2023-03-06T09:00:16.580Z,1003.391588
2023-03-06T09:05:16.703Z,1003.401957
2023-03-06T09:10:16.579Z,1003.378867
2023-03-06T09:15:16.530Z,1003.408449
2023-03-06T09:20:16.609Z,1003.394186
2023-03-06T09:25:16.449Z,1003.404539
2023-03-06T09:30:16.460Z,1003.386406
2023-03-06T09:35:16.783Z,1003.437010
2023-03-06T09:40:16.503Z,1003.466974
2023-03-06T09:45:16.631Z,1003.471723
2023-03-06T09:50:17.038Z,1003.488574
2023-03-06T09:55:16.556Z,1003.486597
2023-03-06T10:00:16.974Z,1003.421307
2023-03-06T10:05:16.619Z,1003.388978
2023-03-06T10:10:17.046Z,1003.416228
2023-03-06T10:15:16.572Z,1003.368792
2023-03-06T10:20:16.536Z,1003.279056
2023-03-06T10:25:16.733Z,1003.178230
2023-03-06T10:30:16.435Z,1003.147027
2023-03-06T10:35:16.685Z,1003.144018
2023-03-06T10:40:16.584Z,1003.162299
2023-03-06T10:45:16.446Z,1003.158822
2023-03-06T10:50:16.557Z,1003.125493
2023-03-06T10:55:16.406Z,1003.110806
2023-03-06T11:00:16.477Z,1003.098134
2023-03-06T11:05:16.926Z,1003.136767
2023-03-06T11:10:16.741Z,1003.100937
2023-03-06T11:15:16.389Z,1003.060056
2023-03-06T11:20:16.547Z,1003.008891
2023-03-06T11:25:16.574Z,1002.951943
2023-03-06T11:30:16.545Z,1002.920205
2023-03-06T11:35:16.432Z,1002.860365
2023-03-06T11:40:16.602Z,1002.757845
2023-03-06T11:45:16.481Z,1002.714229
2023-03-06T11:50:16.653Z,1002.679035
2023-03-06T11:55:16.843Z,1002.612645
2023-03-06T12:00:16.645Z,1002.515109
2023-03-06T12:05:16.796Z,1002.506576
2023-03-06T12:10:16.921Z,1002.450780
2023-03-06T12:15:16.651Z,1002.425671
2023-03-06T12:20:16.640Z,1002.420403
2023-03-06T12:25:16.547Z,1002.405370
2023-03-06T12:30:16.398Z,1002.384022
2023-03-06T12:35:16.676Z,1002.305503
2023-03-06T12:40:16.692Z,1002.222420
2023-03-06T12:45:16.484Z,1002.173150
2023-03-06T12:50:16.585Z,1002.124083
2023-03-06T12:55:16.439Z,1002.023103
2023-03-06T13:00:16.549Z,1002.012038
2023-03-06T13:05:16.685Z,1001.967718
2023-03-06T13:10:16.525Z,1001.893626
2023-03-06T13:15:16.500Z,1001.818130
2023-03-06T13:20:16.705Z,1001.744360
2023-03-06T13:25:16.817Z,1001.637451
2023-03-06T13:30:16.411Z,1001.638581
2023-03-06T13:35:16.477Z,1001.611170
2023-03-06T13:40:16.572Z,1001.666649
2023-03-06T13:45:16.395Z,1001.677722
2023-03-06T13:50:16.454Z,1001.630842
2023-03-06T13:55:16.790Z,1001.601561
2023-03-06T14:00:16.417Z,1001.597165
2023-03-06T14:05:16.616Z,1001.574934
2023-03-06T14:10:16.513Z,1001.569037
2023-03-06T14:15:16.405Z,1001.460709
2023-03-06T14:20:16.781Z,1001.478189
2023-03-06T14:25:16.444Z,1001.471546
2023-03-06T14:30:16.507Z,1001.494549
2023-03-06T14:35:16.655Z,1001.543885
2023-03-06T14:40:16.704Z,1001.552882
2023-03-06T14:45:16.354Z,1001.806268
2023-03-06T14:50:16.612Z,1001.992827
2023-03-06T14:55:16.510Z,1002.182543
2023-03-06T15:00:16.750Z,1002.405265
2023-03-06T15:05:16.977Z,1002.527900
2023-03-06T15:10:19.536Z,1002.558047
2023-03-06T15:15:19.330Z,1002.554330
2023-03-06T15:20:19.165Z,1002.501604
2023-03-06T15:25:19.107Z,1002.509711
2023-03-06T15:30:19.262Z,1002.468272
2023-03-06T15:35:19.233Z,1002.371339
2023-03-06T15:40:18.878Z,1002.329900
2023-03-06T15:45:19.184Z,1002.327200
2023-03-06T15:50:19.067Z,1002.256754
2023-03-06T15:55:18.850Z,1002.223964
2023-03-06T16:00:27.249Z,1002.198023
2023-03-06T16:05:18.961Z,1002.169139
2023-03-06T16:10:18.889Z,1002.198542
2023-03-06T16:15:18.997Z,1002.157665
2023-03-06T16:20:19.078Z,1002.039834
2023-03-06T16:25:18.930Z,1002.065778
2023-03-06T16:30:19.121Z,1002.162886
2023-03-06T16:35:18.988Z,1002.171209
2023-03-06T16:40:18.903Z,1002.270626
2023-03-06T16:45:19.160Z,1002.272786
2023-03-06T16:50:18.801Z,1002.250625
2023-03-06T16:55:18.950Z,1002.313867
2023-03-06T17:00:19.413Z,1002.344860
2023-03-06T17:05:19.565Z,1002.353161
2023-03-06T17:10:18.797Z,1002.418576
2023-03-06T17:15:18.999Z,1002.448851
2023-03-06T17:20:19.036Z,1002.473174
2023-03-06T17:25:18.949Z,1002.506325
2023-03-06T17:30:18.863Z,1002.525781
2023-03-06T17:35:19.246Z,1002.552980
2023-03-06T17:40:19.011Z,1002.597293
2023-03-06T17:45:18.913Z,1002.614586
2023-03-06T17:50:18.936Z,1002.663592
2023-03-06T17:55:18.915Z,1002.678001
2023-03-06T18:00:19.172Z,1002.696557
2023-03-06T18:05:19.641Z,1002.715110
2023-03-06T18:10:19.221Z,1002.713668
2023-03-06T18:15:18.827Z,1002.729522
2023-03-06T18:20:18.809Z,1002.783392
2023-03-06T18:25:18.802Z,1002.825552
2023-03-06T18:30:18.944Z,1002.893480
2023-03-06T18:35:18.918Z,1002.887548
2023-03-06T18:40:19.385Z,1002.913513
2023-03-06T18:45:18.964Z,1002.898203
2023-03-06T18:50:18.832Z,1002.852961
2023-03-06T18:55:18.773Z,1002.811324
2023-03-06T19:00:18.923Z,1002.772043
2023-03-06T19:05:19.057Z,1002.771682
2023-03-06T19:10:18.837Z,1002.776010
2023-03-06T19:15:19.547Z,1002.763403
2023-03-06T19:20:18.983Z,1002.822324
2023-03-06T19:25:19.280Z,1002.917834
2023-03-06T19:30:18.936Z,1002.988303
2023-03-06T19:35:18.882Z,1002.971733
2023-03-06T19:40:18.826Z,1002.978922
2023-03-06T19:45:18.784Z,1002.919081
2023-03-06T19:50:18.870Z,1002.881417
2023-03-06T19:55:18.765Z,1002.872586
2023-03-06T20:00:18.970Z,1002.839790
2023-03-06T20:05:19.069Z,1002.771046
2023-03-06T20:10:18.991Z,1002.730423
2023-03-06T20:15:18.720Z,1002.733669
2023-03-06T20:20:18.840Z,1002.744298
2023-03-06T20:25:18.833Z,1002.705200
2023-03-06T20:30:18.904Z,1002.556023
2023-03-06T20:35:18.905Z,1002.568996
2023-03-06T20:40:18.956Z,1002.592776
2023-03-06T20:45:18.942Z,1002.588811
2023-03-06T20:50:19.229Z,1002.558900
2023-03-06T20:55:19.027Z,1002.559800
2023-03-06T21:00:19.217Z,1002.445573
2023-03-06T21:05:19.734Z,1002.386295
2023-03-06T21:10:18.898Z,1002.348097
2023-03-06T21:15:19.043Z,1002.336207
2023-03-06T21:20:19.207Z,1002.326478
2023-03-06T21:25:18.758Z,1002.298913
2023-03-06T21:30:19.326Z,1002.267200
2023-03-06T21:35:18.726Z,1002.235671
2023-03-06T21:40:19.334Z,1002.230626
2023-03-06T21:45:18.679Z,1002.167385
2023-03-06T21:50:18.923Z,1002.131350
2023-03-06T21:55:18.883Z,1002.105045
2023-03-06T22:00:18.852Z,1002.063966
2023-03-06T22:05:18.843Z,1002.078740
2023-03-06T22:10:18.757Z,1002.054420
2023-03-06T22:15:18.949Z,1002.001815
2023-03-06T22:20:18.762Z,1001.943618
2023-03-06T22:25:18.974Z,1001.852263
2023-03-06T22:30:19.118Z,1001.808493
2023-03-06T22:35:18.846Z,1001.759668
2023-03-06T22:40:18.692Z,1001.713178
2023-03-06T22:45:18.887Z,1001.732097
2023-03-06T22:50:18.675Z,1001.707145
2023-03-06T22:55:19.038Z,1001.629751
2023-03-06T23:00:19.001Z,1001.580202
2023-03-06T23:05:19.617Z,1001.543987
2023-03-06T23:10:18.705Z,1001.492818
2023-03-06T23:15:18.892Z,1001.456077
2023-03-06T23:20:18.943Z,1001.416630
2023-03-06T23:25:19.100Z,1001.377541
2023-03-06T23:30:18.934Z,1001.306909
2023-03-06T23:35:18.782Z,1001.245263
2023-03-06T23:40:18.760Z,1001.241117
2023-03-06T23:45:19.144Z,1001.183462
2023-03-06T23:50:18.694Z,1001.128872
2023-03-06T23:55:18.828Z,1001.052300
